createdAt,value
2022-07-26T00:03:04.513Z,20.70
2022-07-26T00:08:14.723Z,20.70
2022-07-26T00:13:21.075Z,20.60
2022-07-26T00:18:24.482Z,20.50
2022-07-26T00:28:56.842Z,20.60
2022-07-26T00:34:00.758Z,20.80
2022-07-26T00:39:04.018Z,20.90
2022-07-26T00:44:08.788Z,21.00
2022-07-26T00:49:13.276Z,21.00
2022-07-26T00:54:18.790Z,20.90
2022-07-26T00:59:23.756Z,20.80
2022-07-26T01:04:27.557Z,20.80
2022-07-26T01:09:31.398Z,20.70
2022-07-26T01:14:38.357Z,20.70
2022-07-26T01:19:41.744Z,20.50
2022-07-26T01:24:46.438Z,20.60
2022-07-26T01:29:51.865Z,20.60
2022-07-26T01:34:55.357Z,20.60
2022-07-26T01:40:00.533Z,20.60
2022-07-26T01:45:04.090Z,20.60
2022-07-26T01:50:09.812Z,20.50
2022-07-26T01:55:14.609Z,20.30
2022-07-26T02:00:18.558Z,20.30
2022-07-26T02:05:22.010Z,20.30
2022-07-26T02:10:46.857Z,20.30
2022-07-26T02:15:50.752Z,20.30
2022-07-26T02:20:54.112Z,20.40
2022-07-26T02:25:58.835Z,20.30
2022-07-26T02:31:03.390Z,20.20
2022-07-26T02:36:07.148Z,20.20
2022-07-26T02:41:11.942Z,20.20
2022-07-26T02:46:15.413Z,20.20
2022-07-26T02:51:37.222Z,20.20
2022-07-26T02:56:42.257Z,20.20
2022-07-26T03:01:45.591Z,20.20
2022-07-26T03:06:49.047Z,20.10
2022-07-26T03:11:53.749Z,20.10
2022-07-26T03:16:57.015Z,20.00
2022-07-26T03:22:00.209Z,19.90
2022-07-26T03:27:05.496Z,19.80
2022-07-26T03:32:09.578Z,19.80
2022-07-26T03:37:12.797Z,19.70
2022-07-26T03:42:17.546Z,19.70
2022-07-26T03:47:20.772Z,19.70
2022-07-26T03:52:24.098Z,19.60
2022-07-26T03:57:28.822Z,19.60
2022-07-26T04:02:32.318Z,19.60
2022-07-26T04:07:35.710Z,19.50
2022-07-26T04:12:40.973Z,19.50
2022-07-26T04:17:44.781Z,19.50
2022-07-26T04:22:48.008Z,19.50
2022-07-26T04:27:53.056Z,19.50
2022-07-26T04:32:57.636Z,19.50
2022-07-26T04:38:02.399Z,19.50
2022-07-26T04:43:07.227Z,19.60
2022-07-26T04:48:13.464Z,19.60
2022-07-26T04:53:16.805Z,19.50
2022-07-26T04:58:21.672Z,19.60
2022-07-26T05:03:25.645Z,19.70
2022-07-26T05:08:28.997Z,20.00
2022-07-26T05:13:33.720Z,20.20
2022-07-26T05:18:45.932Z,20.40
2022-07-26T05:23:52.774Z,20.60
2022-07-26T05:28:57.576Z,20.90
2022-07-26T05:34:01.010Z,21.10
2022-07-26T05:39:04.425Z,21.50
2022-07-26T05:44:10.653Z,21.60
2022-07-26T05:49:14.355Z,21.70
2022-07-26T05:54:18.692Z,21.60
2022-07-26T05:59:27.730Z,22.40
2022-07-26T06:04:31.161Z,23.00
2022-07-26T06:09:36.213Z,22.90
2022-07-26T06:14:40.971Z,22.50
2022-07-26T06:19:47.733Z,22.20
2022-07-26T06:24:51.345Z,22.20
2022-07-26T06:29:56.043Z,22.10
2022-07-26T06:34:59.214Z,22.30
2022-07-26T06:40:02.672Z,22.60
2022-07-26T06:45:08.494Z,22.70
2022-07-26T06:50:12.218Z,22.60
2022-07-26T06:55:21.876Z,22.90
2022-07-26T07:00:26.469Z,23.10
2022-07-26T07:05:31.043Z,23.50
2022-07-26T07:10:36.118Z,26.50
2022-07-26T07:15:42.299Z,26.30
2022-07-26T07:20:45.618Z,26.10
2022-07-26T07:25:48.957Z,25.40
2022-07-26T07:30:54.352Z,24.90
2022-07-26T07:35:57.638Z,26.30
2022-07-26T07:41:01.655Z,29.90
2022-07-26T07:46:06.326Z,32.80
2022-07-26T07:51:09.850Z,34.80
2022-07-26T07:56:15.057Z,36.40
2022-07-26T08:01:20.047Z,36.60
2022-07-26T08:06:23.459Z,36.90
2022-07-26T08:11:26.722Z,35.90
2022-07-26T08:16:34.791Z,36.50
2022-07-26T08:21:38.661Z,38.10
2022-07-26T08:26:43.044Z,36.10
2022-07-26T08:31:47.751Z,32.70
2022-07-26T08:37:14.691Z,33.40
2022-07-26T08:42:16.085Z,36.20
2022-07-26T08:47:36.211Z,35.90
2022-07-26T08:52:44.591Z,35.80
2022-07-26T08:57:48.910Z,34.80
2022-07-26T09:02:54.834Z,33.90
2022-07-26T09:07:58.431Z,30.70
2022-07-26T09:13:02.089Z,27.80
2022-07-26T09:18:07.363Z,27.50
2022-07-26T09:23:12.323Z,30.60
2022-07-26T09:28:31.380Z,33.20
2022-07-26T09:33:47.318Z,33.10
2022-07-26T09:38:52.195Z,33.50
2022-07-26T09:43:57.189Z,33.90
2022-07-26T09:49:18.643Z,33.10
2022-07-26T09:54:32.819Z,30.10
2022-07-26T09:59:36.101Z,31.50
2022-07-26T10:04:41.340Z,30.80
2022-07-26T10:09:50.342Z,31.60
2022-07-26T10:14:56.646Z,32.90
2022-07-26T10:20:10.626Z,32.00
2022-07-26T10:25:48.796Z,31.60
2022-07-26T10:30:52.442Z,31.40
2022-07-26T10:35:58.048Z,29.80
2022-07-26T10:41:08.004Z,30.00
2022-07-26T10:46:32.710Z,29.60
2022-07-26T10:51:39.331Z,29.70
2022-07-26T10:56:44.290Z,30.80
2022-07-26T11:01:50.876Z,31.50
2022-07-26T11:07:02.279Z,30.80
2022-07-26T11:12:17.388Z,29.20
2022-07-26T11:17:36.604Z,29.80
2022-07-26T11:22:41.364Z,30.00
2022-07-26T11:28:02.543Z,28.80
2022-07-26T11:33:10.477Z,29.00
2022-07-26T11:38:15.130Z,29.40
2022-07-26T11:43:18.553Z,29.80
2022-07-26T11:48:21.744Z,29.50
2022-07-26T11:53:29.869Z,29.00
2022-07-26T11:58:34.717Z,28.90
2022-07-26T12:03:39.328Z,27.80
2022-07-26T12:08:52.750Z,28.00
2022-07-26T12:14:01.561Z,28.10
2022-07-26T12:19:05.717Z,28.80
2022-07-26T12:24:11.828Z,29.50
2022-07-26T12:29:32.365Z,29.10
2022-07-26T12:34:36.240Z,28.10
2022-07-26T12:39:42.179Z,28.30
2022-07-26T12:44:45.553Z,29.00
2022-07-26T12:49:53.513Z,28.50
2022-07-26T12:54:58.281Z,27.90
2022-07-26T13:00:01.891Z,28.30
2022-07-26T13:05:06.253Z,28.70
2022-07-26T13:15:37.967Z,28.20
2022-07-26T13:20:41.556Z,28.60
2022-07-26T13:25:47.380Z,29.00
2022-07-26T13:30:53.275Z,28.30
2022-07-26T13:35:56.631Z,27.40
2022-07-26T13:41:02.417Z,27.50
2022-07-26T13:46:06.323Z,28.30
2022-07-26T13:51:11.648Z,28.40
2022-07-26T13:56:16.358Z,28.80
2022-07-26T14:01:19.730Z,28.00
2022-07-26T14:06:23.045Z,27.40
2022-07-26T14:11:29.288Z,27.30
2022-07-26T14:16:33.064Z,28.00
2022-07-26T14:21:38.726Z,28.20
2022-07-26T14:27:02.990Z,27.70
2022-07-26T14:32:06.944Z,27.90
2022-07-26T14:37:43.977Z,27.90
2022-07-26T14:42:42.670Z,27.80
2022-07-26T14:47:47.335Z,28.60
2022-07-26T14:52:52.883Z,28.20
2022-07-26T14:57:58.378Z,27.50
2022-07-26T15:03:02.640Z,26.90
2022-07-26T15:08:06.884Z,26.90
2022-07-26T15:13:12.864Z,27.10
2022-07-26T15:18:16.173Z,26.90
2022-07-26T15:23:19.702Z,26.60
2022-07-26T15:28:24.775Z,27.10
2022-07-26T15:33:30.454Z,27.80
2022-07-26T15:38:33.832Z,28.10
2022-07-26T15:43:48.531Z,28.30
2022-07-26T15:48:52.539Z,28.20
2022-07-26T15:53:56.153Z,27.90
2022-07-26T15:59:01.261Z,27.30
2022-07-26T16:04:06.348Z,27.00
2022-07-26T16:09:18.540Z,26.70
2022-07-26T16:14:24.869Z,26.80
2022-07-26T16:19:31.222Z,26.70
2022-07-26T16:24:35.633Z,26.40
2022-07-26T16:29:40.544Z,26.30
2022-07-26T16:34:43.991Z,26.40
2022-07-26T16:39:55.819Z,26.10
2022-07-26T16:45:00.726Z,26.00
2022-07-26T16:50:04.191Z,25.50
2022-07-26T16:55:10.959Z,25.20
2022-07-26T17:00:19.033Z,25.40
2022-07-26T17:05:22.745Z,25.40
2022-07-26T17:10:26.268Z,25.40
2022-07-26T17:15:33.353Z,25.50
2022-07-26T17:20:37.257Z,25.30
2022-07-26T17:25:40.872Z,25.10
2022-07-26T17:30:46.777Z,24.60
2022-07-26T17:35:50.655Z,24.30
2022-07-26T17:40:56.856Z,24.60
2022-07-26T17:46:01.781Z,24.50
2022-07-26T17:51:05.559Z,24.50
2022-07-26T17:56:09.232Z,24.40
2022-07-26T18:01:14.249Z,24.30
2022-07-26T18:06:23.023Z,24.20
2022-07-26T18:16:57.061Z,23.60
2022-07-26T18:22:05.532Z,23.30
2022-07-26T18:27:09.672Z,23.10
2022-07-26T18:32:17.320Z,23.00
2022-07-26T18:37:21.165Z,22.90
2022-07-26T18:42:24.735Z,22.60
2022-07-26T18:47:29.595Z,22.40
2022-07-26T18:52:33.061Z,22.20
2022-07-26T18:57:36.874Z,22.00
2022-07-26T19:02:41.797Z,21.80
2022-07-26T19:07:45.903Z,21.70
2022-07-26T19:12:49.581Z,21.60
2022-07-26T19:17:54.473Z,21.40
2022-07-26T19:22:59.037Z,21.20
2022-07-26T19:28:02.986Z,21.00
2022-07-26T19:33:07.885Z,21.00
2022-07-26T19:38:12.545Z,21.00
2022-07-26T19:43:18.126Z,21.00
2022-07-26T19:48:23.640Z,21.10
2022-07-26T19:53:27.006Z,21.10
2022-07-26T19:58:30.420Z,21.10
2022-07-26T20:03:35.240Z,21.20
2022-07-26T20:08:39.894Z,21.10
2022-07-26T20:13:43.577Z,21.10
2022-07-26T20:18:48.580Z,21.00
2022-07-26T20:23:52.019Z,20.80
2022-07-26T20:28:55.491Z,20.70
2022-07-26T20:34:00.547Z,20.50
2022-07-26T20:39:04.070Z,20.40
2022-07-26T20:44:07.570Z,20.30
2022-07-26T20:49:12.633Z,20.20
2022-07-26T20:54:16.127Z,20.10
2022-07-26T20:59:19.518Z,20.00
2022-07-26T21:04:28.643Z,19.70
2022-07-26T21:09:32.009Z,19.50
2022-07-26T21:14:35.653Z,19.30
2022-07-26T21:19:47.275Z,19.20
2022-07-26T21:24:50.613Z,19.00
2022-07-26T21:29:53.969Z,19.00
2022-07-26T21:34:58.762Z,19.00
2022-07-26T21:40:02.373Z,19.00
2022-07-26T21:45:06.865Z,19.00
2022-07-26T21:50:13.366Z,19.00
2022-07-26T21:55:17.976Z,18.90
2022-07-26T22:05:52.606Z,18.80
2022-07-26T22:10:57.658Z,18.70
2022-07-26T22:16:01.190Z,18.70
2022-07-26T22:21:06.232Z,18.70
2022-07-26T22:26:09.691Z,18.70
2022-07-26T22:31:13.043Z,18.50
2022-07-26T22:36:18.761Z,18.40
2022-07-26T22:41:22.214Z,18.20
2022-07-26T22:46:27.905Z,17.90
2022-07-26T22:51:34.409Z,17.60
2022-07-26T22:56:39.935Z,17.40
2022-07-26T23:01:44.186Z,17.20
2022-07-26T23:06:48.944Z,17.00
2022-07-26T23:11:52.319Z,16.80
2022-07-26T23:16:56.661Z,16.70
2022-07-26T23:22:01.344Z,16.60
2022-07-26T23:27:04.720Z,16.50
2022-07-26T23:32:09.255Z,16.50
2022-07-26T23:37:13.889Z,16.60
2022-07-26T23:42:18.201Z,16.70
2022-07-26T23:47:21.496Z,16.80
2022-07-26T23:52:26.267Z,16.70
2022-07-26T23:57:29.601Z,16.60
